0TA5 weather

Metro Heli-Pad Heliport
Houston, Texas, United States

Public forecast

Using degrees Fahrenheit for public forecast. Weather courtesy of forecast.io.

METAR (pilot weather report)

Closest report is William P Hobby Airport, 4.4 nm (8.1 km) ENE. Retrieved 2019/09/15 08:53 UTC (12 minutes ago):

KHOU 150853Z 00000KT 10SM SCT032 SCT065 26/22 A3002 RMK AO2 SLP169 T02610222 58009

TAF (pilot weather forecast)

Closest forecast is William P Hobby Airport, 4.4 nm (8.1 km) ENE. Retrieved 2019/09/15 06:22 UTC (3 hours ago):

TAF KHOU 150520Z 1506/1606 VRB04KT P6SM FEW250 FM151500 06008KT P6SM FEW040 FM152100 08009KT P6SM VCSH SCT050 FM160200 VRB04KT P6SM SCT250